Time;durP1;ratioP1;P1;durP2;ratioP2;P2;SDS_P1;SDS_P2;PMS_P1;PMS_P2;Temp;Humidity;BMP_temperature;BMP_pressure;BME280_temperature;BME280_humidity;BME280_pressure;Samples;Min_cycle;Max_cycle;Signal;HPM_P1;HPM_P2
2022/12/05 00:00:33;;;;;;;;;;;4.50;99.90;;;;;;2617714;47;20506;-70
2022/12/05 00:03:05;;;;;;;;;;;4.60;99.90;;;;;;2618123;54;19938;-72
2022/12/05 00:05:35;;;;;;;;;;;4.60;99.90;;;;;;2618939;47;19969;-71
2022/12/05 00:08:05;;;;;;;;;;;4.50;99.90;;;;;;2618782;54;19947;-71
2022/12/05 00:10:39;;;;;;;;;;;4.50;99.90;;;;;;2619013;47;19964;-72
2022/12/05 00:13:13;;;;;;;;;;;4.50;99.90;;;;;;2621273;47;19999;-71
2022/12/05 00:15:42;;;;;;;;;;;4.50;99.90;;;;;;2616676;47;19957;-72
2022/12/05 00:18:13;;;;;;;;;;;4.50;99.90;;;;;;2616667;47;19974;-72
2022/12/05 00:20:46;;;;;;;;;;;4.50;99.90;;;;;;2616995;46;19950;-71
2022/12/05 00:23:16;;;;;;;;;;;4.50;99.90;;;;;;2616561;47;19970;-71
2022/12/05 00:25:46;;;;;;;;;;;4.50;99.90;;;;;;2616512;54;19946;-71
2022/12/05 00:28:19;;;;;;;;;;;4.50;99.90;;;;;;2619715;54;19953;-71
2022/12/05 00:30:55;;;;;;;;;;;4.50;99.90;;;;;;2619275;54;19950;-72
2022/12/05 00:33:25;;;;;;;;;;;4.50;99.90;;;;;;2624355;46;19939;-71
2022/12/05 00:35:55;;;;;;;;;;;4.50;99.90;;;;;;2625295;47;20538;-71
2022/12/05 00:38:25;;;;;;;;;;;4.50;99.90;;;;;;2621768;31;20420;-71
2022/12/05 00:40:55;;;;;;;;;;;4.60;99.90;;;;;;2617716;54;19973;-70
2022/12/05 00:43:28;;;;;;;;;;;4.60;99.90;;;;;;2618590;47;19939;-70
2022/12/05 00:46:02;;;;;;;;;;;4.60;99.90;;;;;;2618025;51;19957;-71
2022/12/05 00:48:34;;;;;;;;;;;4.60;99.90;;;;;;2618133;47;19957;-71
2022/12/05 00:51:05;;;;;;;;;;;4.30;99.90;;;;;;2617633;54;19947;-72
2022/12/05 00:53:36;;;;;;;;;;;4.60;99.90;;;;;;2618849;54;19945;-72
2022/12/05 00:56:06;;;;;;;;;;;4.60;99.90;;;;;;2619072;47;19939;-72
2022/12/05 00:58:39;;;;;;;;;;;4.50;99.90;;;;;;2617865;54;20057;-72
2022/12/05 01:01:09;;;;;;;;;;;4.50;99.90;;;;;;2618027;54;19953;-71
2022/12/05 01:03:39;;;;;;;;;;;4.50;99.90;;;;;;2617713;54;19950;-70
2022/12/05 01:06:10;;;;;;;;;;;4.50;99.90;;;;;;2617900;54;19977;-72
2022/12/05 01:08:40;;;;;;;;;;;4.50;99.90;;;;;;2617487;47;19947;-71
2022/12/05 01:11:10;;;;;;;;;;;4.50;99.90;;;;;;2617609;54;19946;-70
2022/12/05 01:13:43;;;;;;;;;;;4.60;99.90;;;;;;2617969;48;19953;-70
2022/12/05 01:16:17;;;;;;;;;;;4.60;99.90;;;;;;2617874;46;20422;-70
2022/12/05 01:18:47;;;;;;;;;;;4.50;99.90;;;;;;2617697;47;19947;-72
2022/12/05 01:21:17;;;;;;;;;;;4.50;99.90;;;;;;2623593;54;19991;-70
2022/12/05 01:23:47;;;;;;;;;;;4.50;99.90;;;;;;2623066;54;20002;-71
2022/12/05 01:26:17;;;;;;;;;;;4.40;99.90;;;;;;2616978;47;19957;-73
2022/12/05 01:28:50;;;;;;;;;;;4.40;99.90;;;;;;2616044;47;19999;-72
2022/12/05 01:31:30;;;;;;;;;;;4.40;99.90;;;;;;2616339;54;19938;-72
2022/12/05 01:34:00;;;;;;;;;;;4.30;99.90;;;;;;2617357;54;20055;-73
2022/12/05 01:36:30;;;;;;;;;;;4.30;99.90;;;;;;2617139;47;19946;-73
2022/12/05 01:39:00;;;;;;;;;;;4.30;99.90;;;;;;2619640;54;19986;-71
2022/12/05 01:41:42;;;;;;;;;;;4.30;99.90;;;;;;2618606;54;20003;-73
2022/12/05 01:44:28;;;;;;;;;;;4.20;99.90;;;;;;2620286;47;19946;-72
2022/12/05 01:47:01;;;;;;;;;;;4.20;99.90;;;;;;2617015;54;19947;-72
2022/12/05 01:49:33;;;;;;;;;;;4.20;99.90;;;;;;2617935;47;19954;-71
2022/12/05 01:52:04;;;;;;;;;;;4.20;99.90;;;;;;2618350;54;19946;-72
2022/12/05 01:54:34;;;;;;;;;;;4.30;99.90;;;;;;2618413;47;19946;-71
2022/12/05 01:57:05;;;;;;;;;;;4.30;99.90;;;;;;2621524;54;19994;-71
2022/12/05 01:59:37;;;;;;;;;;;4.30;99.90;;;;;;2626864;54;19939;-72
2022/12/05 02:02:09;;;;;;;;;;;4.40;99.90;;;;;;2628514;54;19943;-71
2022/12/05 02:04:40;;;;;;;;;;;4.30;99.90;;;;;;2627209;54;20296;-71
2022/12/05 02:07:10;;;;;;;;;;;4.30;99.90;;;;;;2622846;47;19947;-70
2022/12/05 02:09:40;;;;;;;;;;;4.40;99.90;;;;;;2625587;54;19947;-71
2022/12/05 02:12:10;;;;;;;;;;;4.30;99.90;;;;;;2626649;46;19965;-70
2022/12/05 02:14:42;;;;;;;;;;;4.30;99.90;;;;;;2623791;39;20641;-72
2022/12/05 02:17:16;;;;;;;;;;;4.30;99.90;;;;;;2619771;47;19950;-72
2022/12/05 02:20:00;;;;;;;;;;;4.30;99.90;;;;;;2619585;47;19950;-72
2022/12/05 02:22:47;;;;;;;;;;;4.30;99.90;;;;;;2619416;47;19939;-72
2022/12/05 02:25:26;;;;;;;;;;;4.30;99.90;;;;;;2617794;54;19950;-72
2022/12/05 02:28:07;;;;;;;;;;;4.30;99.90;;;;;;2619319;54;19946;-71
2022/12/05 02:30:41;;;;;;;;;;;4.40;99.90;;;;;;2626984;54;19950;-73
2022/12/05 02:33:18;;;;;;;;;;;4.40;99.90;;;;;;2625074;54;19977;-73
2022/12/05 02:35:52;;;;;;;;;;;4.40;99.90;;;;;;2622999;47;19950;-71
2022/12/05 02:38:27;;;;;;;;;;;4.40;99.90;;;;;;2623318;54;20523;-72
2022/12/05 02:41:06;;;;;;;;;;;4.40;99.90;;;;;;2623087;47;19946;-72
2022/12/05 02:43:40;;;;;;;;;;;4.40;99.90;;;;;;2624817;47;19946;-73
2022/12/05 02:46:14;;;;;;;;;;;4.40;99.90;;;;;;2624521;54;19946;-71
2022/12/05 02:48:46;;;;;;;;;;;4.40;99.90;;;;;;2625541;54;19958;-71
2022/12/05 02:51:18;;;;;;;;;;;5.50;99.90;;;;;;2624755;47;19954;-71
2022/12/05 02:53:49;;;;;;;;;;;4.50;99.90;;;;;;2622507;47;19958;-71
2022/12/05 02:56:20;;;;;;;;;;;4.50;99.90;;;;;;2621475;47;19950;-70
2022/12/05 02:58:52;;;;;;;;;;;4.50;99.90;;;;;;2624753;54;20026;-70
2022/12/05 03:01:26;;;;;;;;;;;4.60;99.90;;;;;;2627850;54;19939;-73
2022/12/05 03:03:56;;;;;;;;;;;4.60;99.90;;;;;;2624640;47;19950;-70
2022/12/05 03:06:28;;;;;;;;;;;4.60;99.90;;;;;;2623321;54;19947;-71
2022/12/05 03:09:00;;;;;;;;;;;4.60;99.90;;;;;;2622562;54;19938;-72
2022/12/05 03:11:32;;;;;;;;;;;4.60;99.90;;;;;;2624290;54;19998;-72
2022/12/05 03:14:06;;;;;;;;;;;4.50;99.90;;;;;;2623368;46;19944;-71
2022/12/05 03:16:41;;;;;;;;;;;4.50;99.90;;;;;;2623818;54;19946;-72
2022/12/05 03:19:13;;;;;;;;;;;4.50;99.90;;;;;;2621656;46;19943;-71
2022/12/05 03:21:47;;;;;;;;;;;4.60;99.90;;;;;;2621869;54;20844;-72
2022/12/05 03:24:17;;;;;;;;;;;4.70;99.90;;;;;;2620807;39;20657;-69
2022/12/05 03:26:52;;;;;;;;;;;4.60;99.90;;;;;;2619743;47;20467;-72
2022/12/05 03:29:24;;;;;;;;;;;4.60;99.90;;;;;;2619526;47;20023;-70
2022/12/05 03:32:00;;;;;;;;;;;4.60;99.90;;;;;;2621265;47;19958;-69
2022/12/05 03:34:34;;;;;;;;;;;4.60;99.90;;;;;;2620660;54;19962;-73
2022/12/05 03:37:07;;;;;;;;;;;4.60;99.90;;;;;;2621547;47;19951;-71
2022/12/05 03:39:39;;;;;;;;;;;4.70;99.90;;;;;;2625862;51;19945;-69
2022/12/05 03:42:11;;;;;;;;;;;4.80;99.90;;;;;;2627609;46;19958;-72
2022/12/05 03:44:45;;;;;;;;;;;4.70;99.90;;;;;;2624044;47;20402;-71
2022/12/05 03:47:20;;;;;;;;;;;4.70;99.90;;;;;;2619592;54;19981;-71
2022/12/05 03:49:52;;;;;;;;;;;4.70;99.90;;;;;;2618735;50;19954;-71
2022/12/05 03:52:25;;;;;;;;;;;4.70;99.90;;;;;;2619242;54;19973;-70
2022/12/05 03:54:56;;;;;;;;;;;4.60;99.90;;;;;;2618322;54;19953;-70
2022/12/05 03:57:28;;;;;;;;;;;4.70;99.90;;;;;;2618569;47;19955;-70
2022/12/05 04:00:00;;;;;;;;;;;4.70;99.90;;;;;;2622052;47;19947;-70
2022/12/05 04:02:34;;;;;;;;;;;4.60;99.90;;;;;;2626715;54;19998;-71
2022/12/05 04:05:06;;;;;;;;;;;4.60;99.90;;;;;;2629079;54;19953;-73
2022/12/05 04:07:39;;;;;;;;;;;4.60;99.90;;;;;;2621776;47;20517;-72
2022/12/05 04:10:11;;;;;;;;;;;4.60;99.90;;;;;;2618210;54;19939;-72
2022/12/05 04:12:43;;;;;;;;;;;4.50;99.90;;;;;;2619120;54;19945;-72
2022/12/05 04:15:15;;;;;;;;;;;4.50;99.90;;;;;;2617944;47;19946;-72
2022/12/05 04:17:49;;;;;;;;;;;4.50;99.90;;;;;;2617311;47;19951;-72
2022/12/05 04:23:06;;;;;;;;;;;4.60;99.90;;;;;;2617350;54;19998;-72
2022/12/05 04:25:36;;;;;;;;;;;4.60;99.90;;;;;;2617538;47;19955;-72
2022/12/05 04:28:27;;;;;;;;;;;4.60;99.90;;;;;;2617441;54;19957;-73
2022/12/05 04:31:05;;;;;;;;;;;4.60;99.90;;;;;;2617363;47;19947;-70
2022/12/05 04:33:41;;;;;;;;;;;4.60;99.90;;;;;;2618208;54;19946;-71
2022/12/05 04:36:14;;;;;;;;;;;4.70;99.90;;;;;;2617405;54;19953;-72
2022/12/05 04:38:47;;;;;;;;;;;4.70;99.90;;;;;;2617932;54;19955;-72
2022/12/05 04:41:19;;;;;;;;;;;4.70;99.90;;;;;;2617546;46;19947;-71
2022/12/05 04:43:49;;;;;;;;;;;4.70;99.90;;;;;;2618574;54;19953;-70
2022/12/05 04:46:21;;;;;;;;;;;4.70;99.90;;;;;;2617328;54;19958;-73
2022/12/05 04:48:58;;;;;;;;;;;4.70;99.90;;;;;;2619269;39;20367;-73
2022/12/05 04:51:31;;;;;;;;;;;4.70;99.90;;;;;;2618403;47;19994;-73
2022/12/05 04:54:03;;;;;;;;;;;4.70;99.90;;;;;;2618146;47;19947;-73
2022/12/05 04:56:35;;;;;;;;;;;4.70;99.90;;;;;;2617667;54;19946;-73
2022/12/05 04:59:06;;;;;;;;;;;4.70;99.90;;;;;;2617999;54;19998;-71
2022/12/05 05:01:39;;;;;;;;;;;4.70;99.90;;;;;;2618479;51;19946;-73
2022/12/05 05:04:17;;;;;;;;;;;4.70;99.90;;;;;;2617420;48;19950;-71
2022/12/05 05:06:47;;;;;;;;;;;4.70;99.90;;;;;;2618216;39;20344;-71
2022/12/05 05:09:17;;;;;;;;;;;4.80;99.90;;;;;;2619731;47;19954;-72
2022/12/05 05:11:47;;;;;;;;;;;4.80;99.90;;;;;;2624657;54;19954;-70
2022/12/05 05:14:17;;;;;;;;;;;4.80;99.90;;;;;;2626189;54;19950;-69
2022/12/05 05:16:47;;;;;;;;;;;4.80;99.90;;;;;;2618987;47;19951;-70
2022/12/05 05:19:19;;;;;;;;;;;4.80;99.90;;;;;;2618412;54;20079;-71
2022/12/05 05:21:50;;;;;;;;;;;4.80;99.90;;;;;;2616459;47;19970;-72
2022/12/05 05:24:22;;;;;;;;;;;4.80;99.90;;;;;;2617834;54;19951;-67
2022/12/05 05:26:52;;;;;;;;;;;4.80;99.90;;;;;;2617860;39;20399;-68
2022/12/05 05:29:26;;;;;;;;;;;4.80;99.90;;;;;;2619451;47;20474;-70
2022/12/05 05:31:56;;;;;;;;;;;4.80;99.90;;;;;;2629510;47;20018;-68
2022/12/05 05:34:28;;;;;;;;;;;4.80;99.90;;;;;;2624893;54;19986;-69
2022/12/05 05:36:58;;;;;;;;;;;4.80;99.90;;;;;;2618436;54;19953;-69
2022/12/05 05:39:28;;;;;;;;;;;4.90;99.90;;;;;;2618362;47;19947;-69
2022/12/05 05:41:58;;;;;;;;;;;4.80;99.90;;;;;;2616460;47;19947;-70
2022/12/05 05:44:28;;;;;;;;;;;4.80;99.90;;;;;;2616021;54;19946;-70
2022/12/05 05:47:07;;;;;;;;;;;4.80;99.90;;;;;;2617319;54;19946;-70
2022/12/05 05:49:41;;;;;;;;;;;4.80;99.90;;;;;;2615499;47;19947;-69
2022/12/05 05:52:11;;;;;;;;;;;4.80;99.90;;;;;;2615898;54;19947;-70
2022/12/05 05:54:41;;;;;;;;;;;4.80;99.90;;;;;;2615134;39;20872;-71
2022/12/05 05:57:11;;;;;;;;;;;4.70;99.90;;;;;;2615206;54;20017;-71
2022/12/05 05:59:48;;;;;;;;;;;4.80;99.90;;;;;;2615481;39;20813;-71
2022/12/05 06:02:19;;;;;;;;;;;4.70;99.90;;;;;;2615269;47;20030;-69
2022/12/05 06:04:52;;;;;;;;;;;4.80;99.90;;;;;;2614211;47;19947;-71
2022/12/05 06:07:22;;;;;;;;;;;4.80;99.90;;;;;;2615617;54;19953;-69
2022/12/05 06:09:51;;;;;;;;;;;4.70;99.90;;;;;;2615563;47;19947;-71
2022/12/05 06:12:21;;;;;;;;;;;4.70;99.90;;;;;;2617534;47;20072;-71
2022/12/05 06:14:53;;;;;;;;;;;4.70;99.90;;;;;;2620515;47;19950;-72
2022/12/05 06:17:24;;;;;;;;;;;4.60;99.90;;;;;;2626173;47;19943;-71
2022/12/05 06:19:56;;;;;;;;;;;4.60;99.90;;;;;;2626111;47;19950;-72
2022/12/05 06:22:27;;;;;;;;;;;4.60;99.90;;;;;;2626239;39;20407;-70
2022/12/05 06:24:56;;;;;;;;;;;4.60;99.90;;;;;;2621927;54;19952;-71
2022/12/05 06:27:29;;;;;;;;;;;4.60;99.90;;;;;;2621022;39;20362;-72
2022/12/05 06:30:01;;;;;;;;;;;4.70;99.90;;;;;;2619068;47;20094;-72
2022/12/05 06:32:32;;;;;;;;;;;4.70;99.90;;;;;;2619193;54;19998;-70
2022/12/05 06:35:14;;;;;;;;;;;4.70;99.90;;;;;;2617166;47;19977;-68
2022/12/05 06:37:44;;;;;;;;;;;4.70;99.90;;;;;;2617299;47;19950;-70
2022/12/05 06:40:14;;;;;;;;;;;4.70;99.90;;;;;;2621378;47;19994;-70
2022/12/05 06:42:45;;;;;;;;;;;4.80;99.90;;;;;;2620251;47;19938;-71
2022/12/05 06:45:16;;;;;;;;;;;4.80;99.90;;;;;;2616203;47;19950;-69
2022/12/05 06:47:46;;;;;;;;;;;4.80;99.90;;;;;;2617407;54;19954;-71
2022/12/05 06:50:19;;;;;;;;;;;4.80;99.90;;;;;;2616615;47;19946;-72
2022/12/05 06:52:48;;;;;;;;;;;4.80;99.90;;;;;;2616815;47;19973;-71
2022/12/05 06:55:21;;;;;;;;;;;4.80;99.90;;;;;;2620674;54;19955;-71
2022/12/05 06:57:52;;;;;;;;;;;4.80;99.90;;;;;;2627296;54;19950;-70
2022/12/05 07:03:04;;;;;;;;;;;4.80;99.90;;;;;;2617452;47;19951;-72
2022/12/05 07:05:37;;;;;;;;;;;4.80;99.90;;;;;;2615945;47;19957;-72
2022/12/05 07:08:07;;;;;;;;;;;4.80;99.90;;;;;;2618125;54;19950;-71
2022/12/05 07:10:37;;;;;;;;;;;4.80;99.90;;;;;;2616828;54;19946;-71
2022/12/05 07:13:07;;;;;;;;;;;4.80;99.90;;;;;;2612482;54;20907;-75
2022/12/05 07:15:44;;;;;;;;;;;4.80;99.90;;;;;;2613247;54;20502;-74
2022/12/05 07:18:14;;;;;;;;;;;4.80;99.90;;;;;;2613519;47;19947;-74
2022/12/05 07:20:47;;;;;;;;;;;4.80;99.90;;;;;;2616659;54;19947;-73
2022/12/05 07:23:37;;;;;;;;;;;4.80;99.90;;;;;;2616637;47;19950;-73
2022/12/05 07:26:07;;;;;;;;;;;4.80;99.90;;;;;;2614467;39;20654;-76
2022/12/05 07:28:38;;;;;;;;;;;4.90;99.90;;;;;;2616449;54;19983;-75
2022/12/05 07:31:08;;;;;;;;;;;4.80;99.90;;;;;;2616536;54;19947;-76
2022/12/05 07:33:38;;;;;;;;;;;4.80;99.90;;;;;;2617324;39;20411;-76
2022/12/05 07:36:12;;;;;;;;;;;4.80;99.90;;;;;;2615916;47;19950;-75
2022/12/05 07:38:42;;;;;;;;;;;4.90;99.90;;;;;;2616494;39;20574;-70
2022/12/05 07:41:16;;;;;;;;;;;4.90;99.90;;;;;;2616659;47;19947;-74
2022/12/05 07:43:46;;;;;;;;;;;4.90;99.90;;;;;;2617146;54;19938;-73
2022/12/05 07:46:17;;;;;;;;;;;5.00;99.90;;;;;;2617796;47;19993;-73
2022/12/05 07:48:48;;;;;;;;;;;4.90;99.90;;;;;;2618418;47;19983;-68
2022/12/05 07:51:21;;;;;;;;;;;5.00;99.90;;;;;;2619988;47;19954;-69
2022/12/05 07:53:51;;;;;;;;;;;5.00;99.90;;;;;;2621877;54;20473;-71
2022/12/05 07:56:22;;;;;;;;;;;4.90;99.90;;;;;;2619104;54;19947;-71
2022/12/05 07:58:57;;;;;;;;;;;5.00;99.90;;;;;;2618630;47;19957;-60
2022/12/05 08:01:27;;;;;;;;;;;4.90;99.90;;;;;;2617925;54;19946;-59
2022/12/05 08:03:59;;;;;;;;;;;5.00;99.90;;;;;;2616857;46;19947;-60
2022/12/05 08:06:32;;;;;;;;;;;5.00;99.90;;;;;;2615349;47;19959;-58
2022/12/05 08:09:01;;;;;;;;;;;5.10;99.90;;;;;;2615082;54;19947;-61
2022/12/05 08:11:34;;;;;;;;;;;5.10;99.90;;;;;;2616095;54;20002;-61
2022/12/05 08:14:04;;;;;;;;;;;5.10;99.90;;;;;;2615306;54;20070;-58
2022/12/05 08:16:34;;;;;;;;;;;5.10;99.90;;;;;;2617123;54;19943;-60
2022/12/05 08:19:05;;;;;;;;;;;5.20;99.90;;;;;;2617182;47;19946;-73
2022/12/05 08:21:37;;;;;;;;;;;5.20;99.90;;;;;;2626660;47;19957;-73
2022/12/05 08:24:07;;;;;;;;;;;5.20;99.90;;;;;;2623698;53;19947;-73
2022/12/05 08:26:37;;;;;;;;;;;5.20;99.90;;;;;;2617220;54;19961;-73
2022/12/05 08:29:08;;;;;;;;;;;5.20;99.90;;;;;;2619304;54;19953;-74
2022/12/05 08:31:40;;;;;;;;;;;5.20;99.90;;;;;;2626798;54;19947;-71
2022/12/05 08:34:12;;;;;;;;;;;5.20;99.90;;;;;;2625724;47;19938;-71
2022/12/05 08:36:44;;;;;;;;;;;5.20;99.90;;;;;;2617145;47;19950;-72
2022/12/05 08:39:15;;;;;;;;;;;5.20;99.90;;;;;;2618272;54;19946;-73
2022/12/05 08:41:45;;;;;;;;;;;5.20;99.90;;;;;;2615398;54;19978;-74
2022/12/05 08:44:17;;;;;;;;;;;5.10;99.90;;;;;;2616854;54;19947;-74
2022/12/05 08:46:48;;;;;;;;;;;5.10;99.90;;;;;;2616357;54;19946;-73
2022/12/05 08:49:18;;;;;;;;;;;5.10;99.90;;;;;;2622514;54;19957;-73
2022/12/05 08:51:51;;;;;;;;;;;5.10;99.90;;;;;;2621422;54;19951;-74
2022/12/05 08:54:20;;;;;;;;;;;5.10;99.90;;;;;;2618295;47;19947;-73
2022/12/05 08:56:51;;;;;;;;;;;5.10;99.90;;;;;;2616260;46;19996;-73
2022/12/05 08:59:21;;;;;;;;;;;5.20;99.90;;;;;;2618511;39;20364;-73
2022/12/05 09:01:51;;;;;;;;;;;5.20;99.90;;;;;;2617441;47;19997;-71
2022/12/05 09:04:23;;;;;;;;;;;5.20;99.90;;;;;;2618478;47;19950;-72
2022/12/05 09:06:56;;;;;;;;;;;5.20;99.90;;;;;;2620020;47;19946;-73
2022/12/05 09:09:26;;;;;;;;;;;5.20;99.90;;;;;;2619641;47;19950;-74
2022/12/05 09:11:56;;;;;;;;;;;5.10;99.90;;;;;;2617774;39;20380;-74
2022/12/05 09:14:31;;;;;;;;;;;5.10;99.90;;;;;;2615217;54;19995;-75
2022/12/05 09:17:03;;;;;;;;;;;5.10;99.90;;;;;;2615851;49;19954;-74
2022/12/05 09:19:32;;;;;;;;;;;5.10;99.90;;;;;;2615896;54;19950;-75
2022/12/05 09:22:06;;;;;;;;;;;5.20;99.90;;;;;;2616959;51;19954;-72
2022/12/05 09:24:35;;;;;;;;;;;5.20;99.90;;;;;;2617465;54;20206;-73
2022/12/05 09:27:05;;;;;;;;;;;5.30;99.90;;;;;;2619833;47;19942;-74
2022/12/05 09:29:35;;;;;;;;;;;5.30;99.90;;;;;;2620110;54;19996;-74
2022/12/05 09:32:04;;;;;;;;;;;5.30;99.90;;;;;;2619728;54;19947;-75
2022/12/05 09:34:34;;;;;;;;;;;5.30;99.90;;;;;;2617625;54;20071;-73
2022/12/05 09:37:08;;;;;;;;;;;5.30;99.90;;;;;;2617987;54;19939;-74
2022/12/05 09:39:58;;;;;;;;;;;5.20;99.90;;;;;;2617121;54;19939;-74
2022/12/05 09:42:34;;;;;;;;;;;5.20;99.90;;;;;;2618530;47;19975;-73
2022/12/05 09:45:13;;;;;;;;;;;5.20;99.90;;;;;;2625332;54;19946;-74
2022/12/05 09:47:49;;;;;;;;;;;5.20;99.90;;;;;;2622884;47;19951;-76
2022/12/05 09:50:20;;;;;;;;;;;5.20;99.90;;;;;;2622998;54;19938;-74
2022/12/05 09:53:05;;;;;;;;;;;5.30;99.90;;;;;;2619909;54;20498;-73
2022/12/05 09:55:41;;;;;;;;;;;5.30;99.90;;;;;;2621899;54;19947;-74
2022/12/05 09:58:18;;;;;;;;;;;5.30;99.90;;;;;;2620692;54;19995;-73
2022/12/05 10:00:48;;;;;;;;;;;5.30;99.90;;;;;;2616303;54;19990;-73
2022/12/05 10:03:23;;;;;;;;;;;5.30;99.90;;;;;;2618136;31;20480;-73
2022/12/05 10:05:55;;;;;;;;;;;5.40;99.90;;;;;;2616001;47;19969;-75
2022/12/05 10:08:28;;;;;;;;;;;5.40;99.90;;;;;;2617235;47;20498;-75
2022/12/05 10:11:02;;;;;;;;;;;5.40;99.90;;;;;;2616962;47;19958;-75
2022/12/05 10:13:46;;;;;;;;;;;5.30;99.90;;;;;;2616675;54;19946;-72
2022/12/05 10:16:19;;;;;;;;;;;5.40;99.90;;;;;;2616216;54;19992;-72
2022/12/05 10:18:52;;;;;;;;;;;5.40;99.90;;;;;;2616979;54;19947;-72
2022/12/05 10:21:24;;;;;;;;;;;5.40;99.90;;;;;;2617037;54;19946;-71
2022/12/05 10:23:56;;;;;;;;;;;5.40;99.90;;;;;;2617658;47;19947;-71
2022/12/05 10:26:32;;;;;;;;;;;5.30;99.90;;;;;;2617911;54;20025;-72
2022/12/05 10:29:04;;;;;;;;;;;5.30;99.90;;;;;;2617618;47;19950;-71
2022/12/05 10:31:35;;;;;;;;;;;5.40;99.90;;;;;;2616915;54;19954;-71
2022/12/05 10:34:06;;;;;;;;;;;5.40;99.90;;;;;;2617229;54;20474;-71
2022/12/05 10:36:36;;;;;;;;;;;5.40;99.90;;;;;;2617036;54;19958;-72
2022/12/05 10:39:05;;;;;;;;;;;5.40;99.90;;;;;;2618610;47;19963;-72
2022/12/05 10:41:42;;;;;;;;;;;5.40;99.90;;;;;;2621127;47;20311;-71
2022/12/05 10:44:12;;;;;;;;;;;5.10;99.90;;;;;;2621944;54;20818;-71
2022/12/05 10:46:42;;;;;;;;;;;5.40;99.90;;;;;;2617914;54;19946;-72
2022/12/05 10:49:13;;;;;;;;;;;5.40;99.90;;;;;;2619469;54;19953;-72
2022/12/05 10:51:42;;;;;;;;;;;5.50;99.90;;;;;;2621244;54;20486;-73
2022/12/05 10:54:16;;;;;;;;;;;5.50;99.90;;;;;;2617866;47;19950;-72
2022/12/05 10:56:49;;;;;;;;;;;5.50;99.90;;;;;;2616596;54;19947;-74
2022/12/05 10:59:20;;;;;;;;;;;5.50;99.90;;;;;;2619141;47;19971;-71
2022/12/05 11:01:53;;;;;;;;;;;5.50;99.90;;;;;;2619694;54;19947;-72
2022/12/05 11:04:24;;;;;;;;;;;5.50;99.90;;;;;;2617383;54;20478;-72
2022/12/05 11:06:55;;;;;;;;;;;5.50;99.90;;;;;;2618007;47;19942;-73
2022/12/05 11:09:26;;;;;;;;;;;5.50;99.90;;;;;;2623661;54;19947;-73
2022/12/05 11:12:05;;;;;;;;;;;5.50;99.90;;;;;;2624173;39;20324;-74
2022/12/05 11:14:35;;;;;;;;;;;5.50;99.90;;;;;;2617692;54;20049;-73
2022/12/05 11:17:06;;;;;;;;;;;5.50;99.90;;;;;;2616349;52;19974;-72
2022/12/05 11:19:36;;;;;;;;;;;5.60;99.90;;;;;;2616475;54;20030;-72
2022/12/05 11:22:07;;;;;;;;;;;5.60;99.90;;;;;;2617682;54;20063;-72
2022/12/05 11:24:37;;;;;;;;;;;5.60;99.90;;;;;;2616956;54;19960;-73
2022/12/05 11:27:22;;;;;;;;;;;5.60;99.90;;;;;;2616948;54;19954;-73
2022/12/05 11:29:59;;;;;;;;;;;5.60;99.90;;;;;;2616671;54;19992;-72
2022/12/05 11:32:30;;;;;;;;;;;5.60;99.90;;;;;;2617038;47;20718;-74
2022/12/05 11:35:05;;;;;;;;;;;5.60;99.90;;;;;;2617017;54;20007;-79
2022/12/05 11:37:39;;;;;;;;;;;5.60;99.90;;;;;;2614887;54;19950;-75
2022/12/05 11:40:17;;;;;;;;;;;5.60;99.90;;;;;;2616834;47;19959;-72
2022/12/05 11:42:59;;;;;;;;;;;5.60;99.90;;;;;;2616829;47;19979;-72
2022/12/05 11:45:49;;;;;;;;;;;5.60;99.90;;;;;;2617814;54;19946;-73
2022/12/05 11:48:25;;;;;;;;;;;5.60;99.90;;;;;;2617132;54;20016;-73
2022/12/05 11:51:05;;;;;;;;;;;5.60;99.90;;;;;;2617096;54;20001;-74
2022/12/05 11:53:43;;;;;;;;;;;5.60;99.90;;;;;;2615887;46;20817;-73
2022/12/05 11:56:17;;;;;;;;;;;5.60;99.90;;;;;;2617052;54;19946;-74
2022/12/05 11:58:55;;;;;;;;;;;5.60;99.90;;;;;;2617981;47;20051;-74
2022/12/05 12:01:32;;;;;;;;;;;5.60;99.90;;;;;;2617277;54;19991;-73
2022/12/05 12:04:15;;;;;;;;;;;5.70;99.90;;;;;;2614123;54;19946;-73
2022/12/05 12:06:48;;;;;;;;;;;5.70;99.90;;;;;;2622034;54;19982;-74
2022/12/05 12:09:24;;;;;;;;;;;5.70;99.90;;;;;;2623888;54;19946;-73
2022/12/05 12:11:56;;;;;;;;;;;5.70;99.90;;;;;;2625923;54;19950;-75
2022/12/05 12:14:28;;;;;;;;;;;5.70;99.90;;;;;;2622904;51;20335;-74
2022/12/05 12:17:05;;;;;;;;;;;5.80;99.90;;;;;;2619090;46;19974;-74
2022/12/05 12:19:46;;;;;;;;;;;5.80;99.90;;;;;;2616256;54;19981;-74
2022/12/05 12:22:26;;;;;;;;;;;5.80;99.90;;;;;;2619318;47;19994;-74
2022/12/05 12:25:03;;;;;;;;;;;5.80;99.90;;;;;;2619407;54;19953;-73
2022/12/05 12:27:40;;;;;;;;;;;5.80;99.90;;;;;;2619542;39;20406;-73
2022/12/05 12:30:13;;;;;;;;;;;5.80;99.90;;;;;;2618873;48;19990;-73
2022/12/05 12:32:50;;;;;;;;;;;5.80;99.90;;;;;;2625602;54;20470;-74
2022/12/05 12:35:29;;;;;;;;;;;5.80;99.90;;;;;;2624370;54;19950;-74
2022/12/05 12:38:04;;;;;;;;;;;5.80;99.90;;;;;;2624983;54;19946;-73
2022/12/05 12:40:37;;;;;;;;;;;5.80;99.90;;;;;;2617311;47;19953;-71
2022/12/05 12:43:12;;;;;;;;;;;5.90;99.90;;;;;;2616411;54;19953;-73
2022/12/05 12:46:12;;;;;;;;;;;5.90;99.90;;;;;;2617096;54;20101;-73
2022/12/05 12:48:52;;;;;;;;;;;4.90;99.90;;;;;;2616772;54;20038;-73
2022/12/05 12:51:24;;;;;;;;;;;5.90;99.90;;;;;;2617297;39;20021;-73
2022/12/05 12:54:06;;;;;;;;;;;5.90;99.90;;;;;;2616860;47;19967;-75
2022/12/05 12:56:39;;;;;;;;;;;5.90;99.90;;;;;;2617442;54;19992;-74
2022/12/05 12:59:16;;;;;;;;;;;5.90;99.90;;;;;;2617859;54;20086;-75
2022/12/05 13:01:48;;;;;;;;;;;5.90;99.90;;;;;;2619580;47;19958;-73
2022/12/05 13:04:23;;;;;;;;;;;5.90;99.90;;;;;;2622976;54;19945;-74
2022/12/05 13:06:57;;;;;;;;;;;5.90;99.90;;;;;;2622058;54;19946;-76
2022/12/05 13:09:30;;;;;;;;;;;5.90;99.90;;;;;;2618125;54;19955;-76
2022/12/05 13:12:03;;;;;;;;;;;5.90;99.90;;;;;;2616860;54;19978;-75
2022/12/05 13:14:34;;;;;;;;;;;5.90;99.90;;;;;;2616354;54;20451;-74
2022/12/05 13:17:04;;;;;;;;;;;6.00;99.90;;;;;;2616829;54;19950;-76
2022/12/05 13:19:39;;;;;;;;;;;6.00;99.90;;;;;;2616985;47;20042;-74
2022/12/05 13:22:12;;;;;;;;;;;6.00;99.90;;;;;;2619991;54;19947;-76
2022/12/05 13:24:42;;;;;;;;;;;6.00;99.90;;;;;;2620779;51;19946;-75
2022/12/05 13:27:19;;;;;;;;;;;6.00;99.90;;;;;;2622723;54;19955;-76
2022/12/05 13:29:51;;;;;;;;;;;6.00;99.90;;;;;;2617572;54;19951;-75
2022/12/05 13:32:29;;;;;;;;;;;6.00;99.90;;;;;;2616742;54;19958;-73
2022/12/05 13:35:00;;;;;;;;;;;6.10;99.90;;;;;;2617547;54;19971;-74
2022/12/05 13:43:13;;;;;;;;;;;6.10;99.90;;;;;;2618053;54;19966;-74
2022/12/05 13:45:44;;;;;;;;;;;6.10;99.90;;;;;;2621112;54;19994;-75
2022/12/05 13:48:19;;;;;;;;;;;6.10;99.90;;;;;;2624787;54;20475;-75
2022/12/05 13:50:54;;;;;;;;;;;6.10;99.90;;;;;;2619280;54;20355;-73
2022/12/05 13:53:41;;;;;;;;;;;6.10;99.90;;;;;;2620356;47;19951;-75
2022/12/05 13:56:26;;;;;;;;;;;6.10;99.90;;;;;;2620279;47;19962;-74
2022/12/05 13:58:59;;;;;;;;;;;6.10;99.90;;;;;;2616781;54;19950;-74
2022/12/05 14:01:44;;;;;;;;;;;6.10;99.90;;;;;;2621105;39;20396;-74
2022/12/05 14:04:49;;;;;;;;;;;6.10;99.90;;;;;;2620860;54;20006;-74
2022/12/05 14:07:36;;;;;;;;;;;6.00;99.90;;;;;;2618197;54;19946;-74
2022/12/05 14:10:07;;;;;;;;;;;6.00;99.90;;;;;;2616207;47;19954;-74
2022/12/05 14:13:04;;;;;;;;;;;6.00;99.90;;;;;;2618313;47;19968;-74
2022/12/05 14:15:41;;;;;;;;;;;6.00;99.90;;;;;;2616736;47;19954;-76
2022/12/05 14:18:17;;;;;;;;;;;6.10;99.90;;;;;;2617311;46;19951;-74
2022/12/05 14:21:01;;;;;;;;;;;6.10;99.90;;;;;;2619571;47;20462;-76
2022/12/05 14:23:41;;;;;;;;;;;6.10;99.90;;;;;;2620607;47;19950;-75
2022/12/05 14:26:19;;;;;;;;;;;6.10;99.90;;;;;;2619414;54;19977;-74
2022/12/05 14:28:59;;;;;;;;;;;6.10;99.90;;;;;;2620295;54;20544;-76
2022/12/05 14:31:46;;;;;;;;;;;6.10;99.90;;;;;;2622221;54;19951;-75
2022/12/05 14:34:21;;;;;;;;;;;6.10;99.90;;;;;;2622005;46;20451;-73
2022/12/05 14:36:59;;;;;;;;;;;6.10;99.90;;;;;;2620838;54;19946;-78
2022/12/05 14:39:34;;;;;;;;;;;6.20;99.90;;;;;;2623534;47;19953;-72
2022/12/05 14:42:09;;;;;;;;;;;6.20;99.90;;;;;;2621940;54;19953;-73
2022/12/05 14:44:42;;;;;;;;;;;6.20;99.90;;;;;;2621972;47;20543;-75
2022/12/05 14:47:24;;;;;;;;;;;6.20;99.90;;;;;;2622903;47;19969;-76
2022/12/05 14:50:00;;;;;;;;;;;6.10;99.90;;;;;;2621087;47;19947;-75
2022/12/05 14:52:39;;;;;;;;;;;6.10;99.90;;;;;;2616561;54;19953;-75
2022/12/05 14:55:19;;;;;;;;;;;6.10;99.90;;;;;;2618498;47;19966;-74
2022/12/05 14:57:58;;;;;;;;;;;6.10;99.90;;;;;;2620758;39;20336;-76
2022/12/05 15:00:31;;;;;;;;;;;6.10;99.90;;;;;;2617731;47;19970;-75
2022/12/05 15:03:10;;;;;;;;;;;6.10;99.90;;;;;;2618016;47;19951;-72
2022/12/05 15:05:46;;;;;;;;;;;6.10;99.90;;;;;;2616417;54;19939;-73
2022/12/05 15:08:17;;;;;;;;;;;6.20;99.90;;;;;;2616446;54;19947;-71
2022/12/05 15:10:47;;;;;;;;;;;6.20;99.90;;;;;;2617559;54;19970;-76
2022/12/05 15:13:20;;;;;;;;;;;6.20;99.90;;;;;;2617444;47;19953;-70
2022/12/05 15:15:53;;;;;;;;;;;6.20;99.90;;;;;;2617645;39;20367;-73
2022/12/05 15:18:31;;;;;;;;;;;6.20;99.90;;;;;;2618651;39;20604;-68